NCAR-RAP Real-Time Weather Data

Output produced by METARs form (12 August 2020  18:38 UTC)
found at http://weather.rap.ucar.edu/surface/
 
KMBG 121752Z AUTO 12009KT 10SM CLR 29/18 A2981 RMK AO2 SLP083 T02940178 10300 20183 58010
KMBG 121652Z AUTO 15014KT 10SM CLR 27/16 A2984 RMK AO2 SLP090 T02670161
KMBG 121552Z AUTO 14008KT 10SM CLR 25/17 A2984 RMK AO2 SLP093 T02500167
KMBG 121452Z AUTO 16006KT 10SM CLR 23/16 A2985 RMK AO2 SLP095 T02280161 50002
KMBG 121352Z AUTO 17004KT 10SM CLR 21/16 A2986 RMK AO2 SLP099 T02110161 TSNO
KMBG 121252Z AUTO 15003KT 10SM CLR 19/16 A2985 RMK AO2 SLP096 T01940161 TSNO
KMBG 121152Z AUTO 17006KT 10SM CLR 19/16 A2984 RMK AO2 SLP091 60049 70049 T01890156 10256 20189 53019 TSNO
KMBG 121052Z AUTO 18008KT 10SM CLR 21/15 A2983 RMK AO2 RAE0959 SLP085 P0000 T02110150 TSNO
KMBG 120952Z AUTO 08015G28KT 10SM -RA CLR 22/14 A2976 RMK AO2 PK WND 07028/0944 RAB12 SLP063 P0001 T02220139 TSNO
KMBG 120852Z AUTO 12010G21KT 10SM CLR 25/12 A2978 RMK AO2 PK WND 03043/0800 WSHFT 0826 RAE08 TSE07 SLP068 P0000 60048 T02500122 58032
KMBG 120830Z AUTO 16013G34KT 10SM CLR 22/16 A2979 RMK AO2 PK WND 03043/0800 LTG DSNT NE RAE08 TSE07 P0000 T02170161
KMBG 120813Z AUTO 04023G43KT 10SM VCTS FEW110 23/16 A2975 RMK AO2 PK WND 03043/0800 LTG DSNT N AND NE RAE08 TSE07 P0000 T02280156
KMBG 120752Z AUTO 03021G40KT 10SM -TSRA OVC110 21/16 A2980 RMK AO2 PK WND 03040/0752 LTG DSNT N AND NE AND S TSE03B07E22B52 PRESFR SLP078 P0010 T02060161
KMBG 120728Z AUTO 36021G35KT 8SM -RA OVC100 19/16 A2986 RMK AO2 PK WND 34036/0712 LTG DSNT N AND E AND W TSE03B07E22 P0008 T01940161
KMBG 120652Z AUTO 33009G26KT 6SM TSRA FEW070 BKN085 OVC110 19/17 A2989 RMK AO2 PK WND 30033/0634 LTG DSNT ALQDS TSE43B48 SLP110 P0038 T01940167
KMBG 120617Z AUTO 29013G24KT 4SM TSRA BR FEW008 BKN047 OVC065 18/17 A2992 RMK AO2 PK WND 27029/0601 LTG DSNT ALQDS P0027 T01830167
KMBG 120605Z AUTO 28012G39KT 2SM +TSRA BR FEW008 BKN038 OVC060 18/16 A2991 RMK AO2 PK WND 27029/0601 LTG DSNT ALQDS P0018 T01830161
KMBG 120556Z AUTO 30025G39KT 1 3/4SM +TSRA SCT024 SCT042 BKN060 19/16 A2988 RMK AO2 PK WND 29039/0556 LTG DSNT ALQDS P0003 T01890161
KMBG 120552Z AUTO 31017G33KT 4SM TSRA FEW019 SCT042 BKN060 21/16 A2988 RMK AO2 PK WND 28033/0547 LTG DSNT ALQDS RAB49 TSB46 SLP106 P0000 60000 T02060161 10322 20206 403390194 53012
KMBG 120542Z AUTO VRB03KT 10SM VCTS BKN060 25/20 A2985 RMK AO2 LTG DSNT SW-NW PRESRR T02500200
KMBG 120452Z AUTO 12008KT 10SM CLR 24/20 A2983 RMK AO2 SLP088 T02440200
KMBG 120352Z AUTO 14012KT 10SM CLR 25/19 A2982 RMK AO2 SLP086 T02500194
KMBG 120252Z AUTO 14009KT 10SM CLR 25/19 A2984 RMK AO2 SLP094 T02500189 53014
KMBG 120152Z AUTO 13006KT 10SM CLR 26/18 A2980 RMK AO2 SLP078 T02610183
KMBG 120052Z AUTO 15012KT 10SM CLR 30/17 A2980 RMK AO2 SLP076 T03000172
KMBG 112352Z AUTO 13010KT 10SM CLR 32/14 A2980 RMK AO2 SLP077 T03220144 10339 20283 56007
KMBG 112252Z AUTO 11009KT 10SM CLR 33/15 A2981 RMK AO2 SLP078 T03330150
KMBG 112152Z AUTO 10SM CLR 33/14 A2982 RMK AO2 SLP082 T03330144